createdAt,value
2023-09-09T00:00:42.346Z,6
2023-09-09T00:01:42.328Z,6
2023-09-09T00:02:42.260Z,8
2023-09-09T00:03:42.473Z,6
2023-09-09T00:04:42.276Z,5
2023-09-09T00:05:42.254Z,5
2023-09-09T00:06:42.354Z,7
2023-09-09T00:07:42.253Z,7
2023-09-09T00:08:42.305Z,8
2023-09-09T00:09:42.479Z,6
2023-09-09T00:10:42.257Z,7
2023-09-09T00:11:42.252Z,7
2023-09-09T00:12:42.287Z,6
2023-09-09T00:13:42.252Z,6
2023-09-09T00:14:42.227Z,8
2023-09-09T00:15:42.279Z,8
2023-09-09T00:16:42.336Z,7
2023-09-09T00:17:42.339Z,7
2023-09-09T00:18:42.253Z,8
2023-09-09T00:19:42.251Z,6
2023-09-09T00:20:42.501Z,5
2023-09-09T00:21:42.288Z,7
2023-09-09T00:22:42.275Z,6
2023-09-09T00:23:42.269Z,7
2023-09-09T00:24:42.317Z,6
2023-09-09T00:25:42.296Z,7
2023-09-09T00:26:42.240Z,9
2023-09-09T00:27:42.266Z,8
2023-09-09T00:28:42.307Z,6
2023-09-09T00:29:42.251Z,8
2023-09-09T00:30:42.261Z,6
2023-09-09T00:31:42.402Z,7
2023-09-09T00:32:42.280Z,5
2023-09-09T00:33:42.361Z,7
2023-09-09T00:34:42.259Z,6
2023-09-09T00:35:42.260Z,7
2023-09-09T00:36:42.280Z,6
2023-09-09T00:37:42.306Z,8
2023-09-09T00:38:42.274Z,8
2023-09-09T00:39:42.274Z,7
2023-09-09T00:40:42.288Z,7
2023-09-09T00:41:42.368Z,7
2023-09-09T00:42:42.285Z,8
2023-09-09T00:43:42.256Z,7
2023-09-09T00:44:42.274Z,6
2023-09-09T00:45:42.365Z,6
2023-09-09T00:46:42.307Z,7
2023-09-09T00:47:42.351Z,8
2023-09-09T00:48:42.261Z,8
2023-09-09T00:49:42.371Z,6
2023-09-09T00:50:42.340Z,7
2023-09-09T00:51:42.317Z,7
2023-09-09T00:52:42.280Z,9
2023-09-09T00:53:42.284Z,6
2023-09-09T00:54:42.368Z,7
2023-09-09T00:55:42.367Z,6
2023-09-09T00:56:42.404Z,8
2023-09-09T00:57:42.330Z,6
2023-09-09T00:58:42.465Z,6
2023-09-09T00:59:42.303Z,6
2023-09-09T01:00:42.357Z,7
2023-09-09T01:01:42.410Z,6
2023-09-09T01:02:42.555Z,6
2023-09-09T01:03:42.862Z,6
2023-09-09T01:04:42.314Z,6
2023-09-09T01:05:42.462Z,7
2023-09-09T01:06:42.326Z,7
2023-09-09T01:07:42.414Z,7
2023-09-09T01:08:42.350Z,6
2023-09-09T01:09:42.361Z,6
2023-09-09T01:10:42.364Z,7
2023-09-09T01:11:42.412Z,7
2023-09-09T01:12:42.279Z,8
2023-09-09T01:13:42.635Z,6
2023-09-09T01:14:42.571Z,9
2023-09-09T01:15:42.273Z,7
2023-09-09T01:16:42.281Z,7
2023-09-09T01:17:42.478Z,8
2023-09-09T01:18:42.334Z,8
2023-09-09T01:19:42.276Z,6
2023-09-09T01:20:42.313Z,7
2023-09-09T01:21:42.424Z,6
2023-09-09T01:22:42.372Z,9
2023-09-09T01:23:42.550Z,8
2023-09-09T01:24:42.362Z,6
2023-09-09T01:25:42.400Z,6
2023-09-09T01:26:42.455Z,6
2023-09-09T01:27:42.459Z,7
2023-09-09T01:28:42.293Z,8
2023-09-09T01:29:42.432Z,6
2023-09-09T01:30:42.317Z,8
2023-09-09T01:31:42.336Z,7
2023-09-09T01:32:42.343Z,6
2023-09-09T01:33:42.319Z,7
2023-09-09T01:34:42.317Z,10
2023-09-09T01:35:42.339Z,7
2023-09-09T01:36:42.397Z,6
2023-09-09T01:37:42.398Z,7
2023-09-09T01:38:42.366Z,6
2023-09-09T01:39:42.369Z,6
2023-09-09T01:40:42.367Z,6
2023-09-09T01:41:42.300Z,6
2023-09-09T01:42:42.408Z,6
2023-09-09T01:43:42.373Z,7
2023-09-09T01:44:42.296Z,6
2023-09-09T01:45:42.344Z,6
2023-09-09T01:46:42.370Z,6
2023-09-09T01:47:42.345Z,6
2023-09-09T01:48:42.280Z,6
2023-09-09T01:49:42.327Z,8
2023-09-09T01:50:42.350Z,8
2023-09-09T01:51:42.344Z,5
2023-09-09T01:52:42.292Z,7
2023-09-09T01:53:42.287Z,7
2023-09-09T01:54:42.334Z,7
2023-09-09T01:55:42.409Z,6
2023-09-09T01:56:42.396Z,6
2023-09-09T01:57:42.376Z,8
2023-09-09T01:58:42.390Z,6
2023-09-09T01:59:42.314Z,7
2023-09-09T02:00:42.420Z,6
2023-09-09T02:01:42.403Z,8
2023-09-09T02:02:42.574Z,7
2023-09-09T02:03:42.766Z,7
2023-09-09T02:04:42.326Z,7
2023-09-09T02:05:42.347Z,7
2023-09-09T02:06:42.376Z,6
2023-09-09T02:07:42.298Z,9
2023-09-09T02:08:42.343Z,7
2023-09-09T02:09:42.374Z,6
2023-09-09T02:10:42.342Z,6
2023-09-09T02:11:42.367Z,7
2023-09-09T02:12:42.440Z,6
2023-09-09T02:13:42.298Z,8
2023-09-09T02:15:42.417Z,8
2023-09-09T02:16:42.448Z,6
2023-09-09T02:17:42.429Z,7
2023-09-09T02:18:42.370Z,7
2023-09-09T02:19:42.360Z,7
2023-09-09T02:20:42.312Z,8
2023-09-09T02:21:42.336Z,8
2023-09-09T02:22:42.345Z,7
2023-09-09T02:23:42.426Z,6
2023-09-09T02:24:42.350Z,7
2023-09-09T02:25:42.403Z,7
2023-09-09T02:26:42.356Z,8
2023-09-09T02:27:42.413Z,7
2023-09-09T02:28:42.398Z,6
2023-09-09T02:29:42.401Z,6
2023-09-09T02:30:42.400Z,6
2023-09-09T02:31:42.325Z,5
2023-09-09T02:32:42.369Z,6
2023-09-09T02:33:42.334Z,7
2023-09-09T02:34:42.428Z,9
2023-09-09T02:35:42.454Z,7
2023-09-09T02:36:42.363Z,8
2023-09-09T02:37:42.460Z,8
2023-09-09T02:38:42.358Z,6
2023-09-09T02:39:42.333Z,8
2023-09-09T02:40:42.378Z,7
2023-09-09T02:41:42.379Z,7
2023-09-09T02:42:42.517Z,7
2023-09-09T02:43:42.308Z,7
2023-09-09T02:44:42.335Z,7
2023-09-09T02:45:42.407Z,7
2023-09-09T02:46:42.451Z,8
2023-09-09T02:47:42.368Z,6
2023-09-09T02:48:42.312Z,7
2023-09-09T02:49:42.344Z,6
2023-09-09T02:50:42.318Z,5
2023-09-09T02:51:42.447Z,7
2023-09-09T02:52:42.380Z,8
2023-09-09T02:53:42.345Z,7
2023-09-09T02:54:42.376Z,6
2023-09-09T02:55:42.387Z,9
2023-09-09T02:56:42.299Z,6
2023-09-09T02:57:42.298Z,7
2023-09-09T02:58:42.332Z,6
2023-09-09T02:59:42.416Z,8
2023-09-09T03:00:42.426Z,7
2023-09-09T03:01:42.391Z,8
2023-09-09T03:02:42.550Z,6
2023-09-09T03:03:42.822Z,7
2023-09-09T03:04:42.308Z,6
2023-09-09T03:05:42.337Z,7
2023-09-09T03:06:42.382Z,8
2023-09-09T03:07:42.440Z,10
2023-09-09T03:08:42.471Z,6
2023-09-09T03:09:42.366Z,6
2023-09-09T03:10:42.302Z,7
2023-09-09T03:11:42.303Z,7
2023-09-09T03:12:42.354Z,7
2023-09-09T03:13:42.435Z,7
2023-09-09T03:14:42.392Z,7
2023-09-09T03:15:42.388Z,8
2023-09-09T03:16:42.426Z,8
2023-09-09T03:17:42.479Z,6
2023-09-09T03:18:42.502Z,7
2023-09-09T03:19:42.332Z,6
2023-09-09T03:20:42.353Z,7
2023-09-09T03:21:42.348Z,8
2023-09-09T03:22:42.349Z,5
2023-09-09T03:23:42.442Z,7
2023-09-09T03:24:42.304Z,6
2023-09-09T03:25:42.370Z,6
2023-09-09T03:26:42.334Z,6
2023-09-09T03:27:42.304Z,7
2023-09-09T03:28:42.310Z,5
2023-09-09T03:29:42.353Z,8
2023-09-09T03:30:42.355Z,9
2023-09-09T03:31:42.373Z,9
2023-09-09T03:32:42.495Z,7
2023-09-09T03:33:42.364Z,6
2023-09-09T03:34:42.294Z,7
2023-09-09T03:35:42.290Z,6
2023-09-09T03:36:42.326Z,8
2023-09-09T03:37:42.460Z,7
2023-09-09T03:38:42.307Z,6
2023-09-09T03:39:42.399Z,7
2023-09-09T03:40:42.340Z,6
2023-09-09T03:41:42.317Z,6
2023-09-09T03:42:42.291Z,6
2023-09-09T03:43:42.772Z,7
2023-09-09T03:44:42.304Z,8
2023-09-09T03:45:42.444Z,7
2023-09-09T03:46:42.354Z,8
2023-09-09T03:47:42.394Z,6
2023-09-09T03:48:42.375Z,6
2023-09-09T03:49:42.290Z,7
2023-09-09T03:50:42.305Z,6
2023-09-09T03:51:42.339Z,7
2023-09-09T03:52:42.333Z,7
2023-09-09T03:53:42.283Z,8
2023-09-09T03:54:42.301Z,7
2023-09-09T03:55:42.484Z,6
2023-09-09T03:56:42.480Z,7
2023-09-09T03:57:42.349Z,6
2023-09-09T03:58:42.467Z,6
2023-09-09T03:59:42.324Z,6
2023-09-09T04:00:42.472Z,10
2023-09-09T04:01:42.379Z,6
2023-09-09T04:02:42.320Z,8
2023-09-09T04:03:43.009Z,7
2023-09-09T04:04:42.392Z,7
2023-09-09T04:05:42.338Z,7
2023-09-09T04:06:42.464Z,7
2023-09-09T04:07:42.359Z,7
2023-09-09T04:08:42.340Z,8
2023-09-09T04:09:42.383Z,6
2023-09-09T04:10:42.401Z,8
2023-09-09T04:11:42.345Z,7
2023-09-09T04:12:42.462Z,8
2023-09-09T04:13:42.987Z,7
2023-09-09T04:14:42.310Z,7
2023-09-09T04:15:42.321Z,7
2023-09-09T04:16:42.560Z,8
2023-09-09T04:17:42.481Z,6
2023-09-09T04:18:46.828Z,7
2023-09-09T04:19:42.456Z,7
2023-09-09T04:20:42.426Z,8
2023-09-09T04:21:42.467Z,7
2023-09-09T04:22:42.430Z,8
2023-09-09T04:23:42.443Z,7
2023-09-09T04:24:42.402Z,7
2023-09-09T04:25:42.331Z,7
2023-09-09T04:26:42.321Z,8
2023-09-09T04:27:42.345Z,6
2023-09-09T04:28:42.398Z,6
2023-09-09T04:29:42.376Z,6
2023-09-09T04:30:42.402Z,7
2023-09-09T04:31:42.388Z,7
2023-09-09T04:32:42.432Z,7
2023-09-09T04:33:42.419Z,6
2023-09-09T04:34:42.398Z,7
2023-09-09T04:35:42.406Z,7
2023-09-09T04:36:42.429Z,6
2023-09-09T04:37:42.456Z,8
2023-09-09T04:38:43.042Z,7
2023-09-09T04:39:42.345Z,7
2023-09-09T04:40:42.300Z,6
2023-09-09T04:41:42.321Z,8
2023-09-09T04:42:42.398Z,9
2023-09-09T04:43:42.373Z,6
2023-09-09T04:44:42.471Z,8
2023-09-09T04:45:42.390Z,8
2023-09-09T04:46:42.461Z,7
2023-09-09T04:47:42.517Z,6
2023-09-09T04:48:42.399Z,8
2023-09-09T04:49:42.457Z,8
2023-09-09T04:50:42.428Z,8
2023-09-09T04:51:42.339Z,6
2023-09-09T04:52:42.401Z,7
2023-09-09T04:53:42.439Z,9
2023-09-09T04:54:42.316Z,8
2023-09-09T04:55:42.324Z,9
2023-09-09T04:56:42.373Z,7
2023-09-09T04:57:42.351Z,7
2023-09-09T04:58:42.422Z,7
2023-09-09T04:59:42.362Z,7
2023-09-09T05:00:42.494Z,8
2023-09-09T05:01:42.451Z,8
2023-09-09T05:02:42.492Z,8
2023-09-09T05:03:42.536Z,7
2023-09-09T05:04:42.346Z,8
2023-09-09T05:05:42.412Z,6
2023-09-09T05:06:42.364Z,8
2023-09-09T05:07:42.305Z,8
2023-09-09T05:08:42.411Z,7
2023-09-09T05:09:42.498Z,8
2023-09-09T05:10:42.372Z,7
2023-09-09T05:11:42.469Z,8
2023-09-09T05:12:45.978Z,7
2023-09-09T05:13:42.320Z,7
2023-09-09T05:14:42.358Z,6
2023-09-09T05:15:42.420Z,8
2023-09-09T05:16:42.435Z,6
2023-09-09T05:17:42.539Z,9
2023-09-09T05:18:42.300Z,8
2023-09-09T05:19:42.383Z,7
2023-09-09T05:20:42.425Z,7
2023-09-09T05:21:42.378Z,6
2023-09-09T05:22:42.334Z,9
2023-09-09T05:23:42.432Z,7
2023-09-09T05:24:42.499Z,8
2023-09-09T05:25:42.439Z,7
2023-09-09T05:26:42.362Z,9
2023-09-09T05:27:42.362Z,7
2023-09-09T05:28:42.374Z,9
2023-09-09T05:29:42.495Z,7
2023-09-09T05:30:42.357Z,7
2023-09-09T05:31:42.361Z,7
2023-09-09T05:32:42.359Z,6
2023-09-09T05:33:42.696Z,9
2023-09-09T05:34:42.346Z,14
2023-09-09T05:35:42.338Z,9
2023-09-09T05:36:42.421Z,8
2023-09-09T05:37:42.419Z,7
2023-09-09T05:38:42.446Z,9
2023-09-09T05:39:42.424Z,9
2023-09-09T05:40:42.444Z,6
2023-09-09T05:41:42.447Z,12
2023-09-09T05:42:42.477Z,7
2023-09-09T05:43:42.357Z,7
2023-09-09T05:44:42.325Z,8
2023-09-09T05:45:42.461Z,8
2023-09-09T05:46:42.449Z,7
2023-09-09T05:47:42.414Z,9
2023-09-09T05:48:42.325Z,7
2023-09-09T05:49:42.409Z,10
2023-09-09T05:50:42.415Z,7
2023-09-09T05:51:42.420Z,8
2023-09-09T05:52:42.411Z,10
2023-09-09T05:53:42.868Z,10
2023-09-09T05:54:42.444Z,9
2023-09-09T05:55:42.367Z,7
2023-09-09T05:56:42.333Z,8
2023-09-09T05:57:42.454Z,9
2023-09-09T05:58:42.386Z,6
2023-09-09T05:59:42.410Z,8
2023-09-09T06:00:42.355Z,7
2023-09-09T06:01:42.384Z,8
2023-09-09T06:02:42.371Z,8
2023-09-09T06:03:42.582Z,8
2023-09-09T06:04:42.555Z,7
2023-09-09T06:05:42.664Z,8
2023-09-09T06:06:42.441Z,9
2023-09-09T06:07:42.638Z,9
2023-09-09T06:08:42.413Z,7
2023-09-09T06:09:42.444Z,6
2023-09-09T06:10:42.471Z,6
2023-09-09T06:11:42.484Z,6
2023-09-09T06:12:42.510Z,8
2023-09-09T06:13:42.473Z,8
2023-09-09T06:14:42.466Z,6
2023-09-09T06:15:42.348Z,9
2023-09-09T06:16:42.423Z,7
2023-09-09T06:17:42.398Z,9
2023-09-09T06:18:42.657Z,6
2023-09-09T06:19:42.387Z,8
2023-09-09T06:20:42.335Z,8
2023-09-09T06:21:42.452Z,7
2023-09-09T06:22:42.408Z,11
2023-09-09T06:23:42.416Z,8
2023-09-09T06:24:42.342Z,6
2023-09-09T06:25:42.442Z,8
2023-09-09T06:26:42.449Z,8
2023-09-09T06:27:42.334Z,5
2023-09-09T06:28:42.584Z,7
2023-09-09T06:29:42.397Z,8
2023-09-09T06:30:42.468Z,7
2023-09-09T06:31:42.346Z,7
2023-09-09T06:32:42.555Z,6
2023-09-09T06:33:44.878Z,5
2023-09-09T06:34:42.486Z,7
2023-09-09T06:35:42.470Z,9
2023-09-09T06:36:42.650Z,6
2023-09-09T06:37:42.486Z,6
2023-09-09T06:38:42.893Z,5
2023-09-09T06:39:42.854Z,7
2023-09-09T06:40:42.428Z,7
2023-09-09T06:41:42.369Z,6
2023-09-09T06:42:42.330Z,6
2023-09-09T06:43:42.365Z,6
2023-09-09T06:44:42.462Z,6
2023-09-09T06:45:42.436Z,7
2023-09-09T06:46:42.471Z,6
2023-09-09T06:47:42.577Z,6
2023-09-09T06:48:42.377Z,8
2023-09-09T06:49:42.405Z,6
2023-09-09T06:50:42.442Z,7
2023-09-09T06:51:42.418Z,6
2023-09-09T06:52:42.389Z,7
2023-09-09T06:53:42.442Z,8
2023-09-09T06:54:42.424Z,9
2023-09-09T06:55:42.412Z,6
2023-09-09T06:56:42.361Z,6
2023-09-09T06:57:42.452Z,8
2023-09-09T06:58:42.444Z,6
2023-09-09T06:59:42.464Z,9
2023-09-09T07:00:42.460Z,6
2023-09-09T07:01:42.398Z,5
2023-09-09T07:02:42.404Z,7
2023-09-09T07:03:42.919Z,6
2023-09-09T07:04:42.562Z,6
2023-09-09T07:05:42.371Z,6
2023-09-09T07:06:55.892Z,7
2023-09-09T07:07:43.153Z,7
2023-09-09T07:08:42.440Z,6
2023-09-09T07:09:42.358Z,5
2023-09-09T07:10:42.550Z,7
2023-09-09T07:11:42.448Z,6
2023-09-09T07:12:42.455Z,6
2023-09-09T07:13:42.462Z,6
2023-09-09T07:14:42.508Z,6
2023-09-09T07:15:42.540Z,6
2023-09-09T07:16:42.393Z,5
2023-09-09T07:17:42.398Z,9
2023-09-09T07:18:42.535Z,8
2023-09-09T07:19:42.491Z,6
2023-09-09T07:20:42.397Z,7
2023-09-09T07:21:42.416Z,7
2023-09-09T07:22:42.382Z,7
2023-09-09T07:23:42.376Z,6
2023-09-09T07:24:42.418Z,6
2023-09-09T07:25:42.501Z,8
2023-09-09T07:26:42.439Z,5
2023-09-09T07:27:42.464Z,7
2023-09-09T07:28:42.380Z,6
2023-09-09T07:29:42.440Z,8
2023-09-09T07:30:42.609Z,7
2023-09-09T07:31:42.470Z,7
2023-09-09T07:32:42.443Z,6
2023-09-09T07:33:42.523Z,6
2023-09-09T07:34:42.536Z,8
2023-09-09T07:35:42.568Z,6
2023-09-09T07:36:42.394Z,6
2023-09-09T07:37:42.538Z,6
2023-09-09T07:38:42.473Z,7
2023-09-09T07:39:42.581Z,7
2023-09-09T07:40:42.699Z,6
2023-09-09T07:41:42.480Z,7
2023-09-09T07:42:42.454Z,6
2023-09-09T07:43:42.456Z,8
2023-09-09T07:44:42.460Z,7
2023-09-09T07:45:42.479Z,6
2023-09-09T07:46:42.541Z,6
2023-09-09T07:47:42.496Z,6
2023-09-09T07:48:42.472Z,6
2023-09-09T07:49:42.429Z,8
2023-09-09T07:50:42.478Z,6
2023-09-09T07:51:42.508Z,7
2023-09-09T07:52:42.508Z,5
2023-09-09T07:53:42.418Z,10
2023-09-09T07:54:42.446Z,5
2023-09-09T07:55:42.439Z,6
2023-09-09T07:56:42.446Z,7
2023-09-09T07:57:42.446Z,6
2023-09-09T07:58:42.464Z,6
2023-09-09T07:59:42.472Z,6
2023-09-09T08:00:42.515Z,8
2023-09-09T08:01:42.509Z,6
2023-09-09T08:02:42.456Z,6
2023-09-09T08:03:42.700Z,6
2023-09-09T08:04:42.540Z,7
2023-09-09T08:05:42.364Z,6
2023-09-09T08:06:42.436Z,6
2023-09-09T08:07:42.534Z,6
2023-09-09T08:08:42.543Z,7
2023-09-09T08:09:42.679Z,7
2023-09-09T08:10:42.430Z,6
2023-09-09T08:11:42.407Z,6
2023-09-09T08:12:42.484Z,7
2023-09-09T08:13:42.385Z,7
2023-09-09T08:14:42.456Z,6
2023-09-09T08:15:42.510Z,6
2023-09-09T08:16:42.482Z,6
2023-09-09T08:17:42.414Z,9
2023-09-09T08:18:42.498Z,8
2023-09-09T08:19:42.548Z,6
2023-09-09T08:20:42.498Z,5
2023-09-09T08:21:42.514Z,7
2023-09-09T08:22:42.439Z,6
2023-09-09T08:23:42.497Z,7
2023-09-09T08:24:42.506Z,6
2023-09-09T08:25:42.383Z,7
2023-09-09T08:26:42.429Z,5
2023-09-09T08:27:42.412Z,7
2023-09-09T08:28:42.365Z,6
2023-09-09T08:29:42.471Z,5
2023-09-09T08:30:42.494Z,6
2023-09-09T08:31:42.510Z,8
2023-09-09T08:32:42.466Z,6
2023-09-09T08:33:42.470Z,7
2023-09-09T08:34:42.479Z,7
2023-09-09T08:35:42.407Z,6
2023-09-09T08:36:42.385Z,7
2023-09-09T08:37:42.587Z,6
2023-09-09T08:38:42.476Z,6
2023-09-09T08:39:42.645Z,5
2023-09-09T08:40:42.505Z,6
2023-09-09T08:41:42.584Z,6
2023-09-09T08:42:42.368Z,8
2023-09-09T08:43:42.540Z,5
2023-09-09T08:44:42.491Z,8
2023-09-09T08:45:42.726Z,5
2023-09-09T08:46:42.721Z,5
2023-09-09T08:47:42.569Z,5
2023-09-09T08:48:42.666Z,9
2023-09-09T08:49:43.153Z,8
2023-09-09T08:50:42.489Z,7
2023-09-09T08:51:42.485Z,7
2023-09-09T08:52:42.399Z,5
2023-09-09T08:53:42.394Z,9
2023-09-09T08:54:42.412Z,7
2023-09-09T08:55:42.448Z,5
2023-09-09T08:56:42.465Z,5
2023-09-09T08:57:42.396Z,7
2023-09-09T08:58:42.589Z,7
2023-09-09T08:59:42.518Z,8
2023-09-09T09:00:42.459Z,7
2023-09-09T09:01:42.522Z,6
2023-09-09T09:02:42.530Z,6
2023-09-09T09:03:42.984Z,8
2023-09-09T09:04:42.570Z,7
2023-09-09T09:05:42.487Z,7
2023-09-09T09:06:42.534Z,6
2023-09-09T09:07:42.403Z,7
2023-09-09T09:08:42.390Z,5
2023-09-09T09:09:42.391Z,6
2023-09-09T09:10:42.418Z,5
2023-09-09T09:11:42.391Z,6
2023-09-09T09:12:42.515Z,6
2023-09-09T09:13:42.612Z,7
2023-09-09T09:14:42.474Z,9
2023-09-09T09:15:42.459Z,6
2023-09-09T09:16:42.482Z,9
2023-09-09T09:17:42.543Z,10
2023-09-09T09:19:43.630Z,7
2023-09-09T09:20:42.507Z,6
2023-09-09T09:21:42.483Z,8
2023-09-09T09:22:42.447Z,8
2023-09-09T09:23:42.657Z,8
2023-09-09T09:24:42.390Z,9
2023-09-09T09:25:42.384Z,9
2023-09-09T09:26:42.550Z,7
2023-09-09T09:27:42.455Z,7
2023-09-09T09:28:42.520Z,6
2023-09-09T09:29:42.563Z,7
2023-09-09T09:30:42.447Z,6
2023-09-09T09:31:42.449Z,5
2023-09-09T09:32:42.525Z,5
2023-09-09T09:33:42.503Z,6
2023-09-09T09:34:42.447Z,8
2023-09-09T09:35:42.498Z,6
2023-09-09T09:36:42.590Z,6
2023-09-09T09:37:42.566Z,7
2023-09-09T09:38:42.402Z,7
2023-09-09T09:39:42.503Z,8
2023-09-09T09:40:42.515Z,9
2023-09-09T09:41:42.417Z,7
2023-09-09T09:42:42.516Z,8
2023-09-09T09:43:42.403Z,6
2023-09-09T09:44:42.527Z,7
2023-09-09T09:45:42.457Z,7
2023-09-09T09:46:42.473Z,6
2023-09-09T09:47:42.504Z,6
2023-09-09T09:48:42.459Z,8
2023-09-09T09:49:42.393Z,6
2023-09-09T09:50:42.437Z,9
2023-09-09T09:51:42.434Z,7
2023-09-09T09:52:42.492Z,5
2023-09-09T09:53:42.485Z,7
2023-09-09T09:54:42.653Z,5
2023-09-09T09:55:42.514Z,5
2023-09-09T09:56:42.412Z,7
2023-09-09T09:57:42.412Z,6
2023-09-09T09:58:42.439Z,5
2023-09-09T09:59:42.444Z,7
2023-09-09T10:00:42.492Z,5
2023-09-09T10:01:42.530Z,6
2023-09-09T10:02:42.478Z,8
2023-09-09T10:03:42.475Z,10
2023-09-09T10:04:42.503Z,8
2023-09-09T10:05:42.432Z,6
2023-09-09T10:06:42.500Z,6
2023-09-09T10:07:42.460Z,8
2023-09-09T10:08:42.426Z,6
2023-09-09T10:09:42.554Z,9
2023-09-09T10:10:42.455Z,11
2023-09-09T10:11:42.440Z,8
2023-09-09T10:12:48.609Z,9
2023-09-09T10:13:44.443Z,8
2023-09-09T10:14:42.490Z,9
2023-09-09T10:15:42.494Z,8
2023-09-09T10:16:42.511Z,10
2023-09-09T10:17:42.502Z,9
2023-09-09T10:18:42.415Z,8
2023-09-09T10:19:42.519Z,9
2023-09-09T10:20:42.546Z,9
2023-09-09T10:21:43.219Z,6
2023-09-09T10:22:42.675Z,10
2023-09-09T10:23:42.432Z,10
2023-09-09T10:24:42.440Z,8
2023-09-09T10:25:42.524Z,9
2023-09-09T10:26:42.476Z,9
2023-09-09T10:27:42.489Z,9
2023-09-09T10:28:42.472Z,8
2023-09-09T10:29:42.464Z,9
2023-09-09T10:30:42.448Z,12
2023-09-09T10:31:42.430Z,8
2023-09-09T10:32:42.517Z,9
2023-09-09T10:33:42.477Z,9
2023-09-09T10:34:42.621Z,7
2023-09-09T10:35:42.505Z,7
2023-09-09T10:36:51.477Z,7
2023-09-09T10:37:42.520Z,7
2023-09-09T10:38:42.433Z,7
2023-09-09T10:39:42.486Z,8
2023-09-09T10:40:42.408Z,8
2023-09-09T10:41:42.493Z,9
2023-09-09T10:42:42.611Z,7
2023-09-09T10:43:42.418Z,7
2023-09-09T10:44:42.405Z,7
2023-09-09T10:45:42.425Z,9
2023-09-09T10:46:42.491Z,9
2023-09-09T10:47:42.528Z,9
2023-09-09T10:48:42.478Z,8
2023-09-09T10:49:42.855Z,8
2023-09-09T10:50:45.292Z,7
2023-09-09T10:51:43.034Z,10
2023-09-09T10:52:43.050Z,7
2023-09-09T10:53:43.370Z,6
2023-09-09T10:54:42.435Z,11
2023-09-09T10:55:42.444Z,7
2023-09-09T10:56:42.439Z,9
2023-09-09T10:57:42.496Z,10
2023-09-09T10:58:42.452Z,11
2023-09-09T10:59:42.435Z,6
2023-09-09T11:00:42.449Z,7
2023-09-09T11:01:42.519Z,9
2023-09-09T11:02:42.511Z,9
2023-09-09T11:03:42.504Z,10
2023-09-09T11:04:42.799Z,10
2023-09-09T11:05:42.638Z,8
2023-09-09T11:06:42.521Z,12
2023-09-09T11:07:42.516Z,10
2023-09-09T11:08:42.520Z,8
2023-09-09T11:09:42.564Z,9
2023-09-09T11:10:42.546Z,8
2023-09-09T11:11:42.412Z,9
2023-09-09T11:12:42.487Z,9
2023-09-09T11:13:42.433Z,10
2023-09-09T11:14:42.564Z,8
2023-09-09T11:15:42.464Z,7
2023-09-09T11:16:42.590Z,9
2023-09-09T11:17:42.471Z,8
2023-09-09T11:18:42.584Z,10
2023-09-09T11:19:42.583Z,7
2023-09-09T11:20:42.527Z,11
2023-09-09T11:21:42.529Z,9
2023-09-09T11:22:42.502Z,9
2023-09-09T11:23:42.435Z,7
2023-09-09T11:24:42.440Z,8
2023-09-09T11:25:42.422Z,13
2023-09-09T11:26:42.536Z,7
2023-09-09T11:27:42.529Z,12
2023-09-09T11:28:42.459Z,7
2023-09-09T11:29:47.484Z,8
2023-09-09T11:30:42.558Z,8
2023-09-09T11:31:42.562Z,8
2023-09-09T11:32:42.821Z,9
2023-09-09T11:33:42.476Z,8
2023-09-09T11:34:42.454Z,7
2023-09-09T11:35:42.453Z,14
2023-09-09T11:36:42.603Z,9
2023-09-09T11:37:42.548Z,8
2023-09-09T11:38:42.524Z,8
2023-09-09T11:39:42.476Z,11
2023-09-09T11:40:42.439Z,7
2023-09-09T11:41:42.530Z,13
2023-09-09T11:42:42.517Z,9
2023-09-09T11:43:42.554Z,12
2023-09-09T11:44:42.644Z,9
2023-09-09T11:45:42.602Z,11
2023-09-09T11:46:42.557Z,10
2023-09-09T11:47:42.574Z,11
2023-09-09T11:48:42.520Z,9
2023-09-09T11:49:42.444Z,10
2023-09-09T11:50:42.487Z,10
2023-09-09T11:51:42.456Z,12
2023-09-09T11:52:42.555Z,14
2023-09-09T11:53:42.494Z,11
2023-09-09T11:54:42.600Z,8
2023-09-09T11:55:42.458Z,11
2023-09-09T11:56:42.433Z,10
2023-09-09T11:57:42.528Z,7
2023-09-09T11:58:42.533Z,14
2023-09-09T11:59:42.552Z,13
2023-09-09T12:00:42.542Z,10
2023-09-09T12:01:42.685Z,8
2023-09-09T12:02:42.569Z,12
2023-09-09T12:03:42.791Z,13
2023-09-09T12:04:42.506Z,7
2023-09-09T12:05:42.466Z,9
2023-09-09T12:06:42.474Z,10
2023-09-09T12:07:42.497Z,10
2023-09-09T12:08:42.433Z,9
2023-09-09T12:09:42.504Z,11
2023-09-09T12:10:42.620Z,8
2023-09-09T12:11:42.490Z,8
2023-09-09T12:12:42.507Z,12
2023-09-09T12:13:42.520Z,9
2023-09-09T12:14:42.580Z,11
2023-09-09T12:15:45.636Z,10
2023-09-09T12:16:42.719Z,14
2023-09-09T12:17:42.632Z,10
2023-09-09T12:18:42.506Z,11
2023-09-09T12:19:42.508Z,9
2023-09-09T12:20:42.547Z,8
2023-09-09T12:21:42.516Z,12
2023-09-09T12:22:42.485Z,12
2023-09-09T12:23:42.591Z,8
2023-09-09T12:24:42.497Z,11
2023-09-09T12:25:42.502Z,8
2023-09-09T12:26:42.503Z,10
2023-09-09T12:27:42.631Z,12
2023-09-09T12:28:42.517Z,10
2023-09-09T12:29:42.524Z,9
2023-09-09T12:30:42.550Z,7
2023-09-09T12:31:42.588Z,11
2023-09-09T12:32:42.595Z,11
2023-09-09T12:33:42.568Z,12
2023-09-09T12:34:42.580Z,9
2023-09-09T12:35:42.570Z,10
2023-09-09T12:36:42.490Z,13
2023-09-09T12:37:42.480Z,10
2023-09-09T12:38:42.482Z,14
2023-09-09T12:39:42.515Z,17
2023-09-09T12:40:42.494Z,8
2023-09-09T12:41:42.437Z,11
2023-09-09T12:42:42.560Z,9
2023-09-09T12:43:42.743Z,7
2023-09-09T12:44:42.492Z,16
2023-09-09T12:45:42.557Z,9
2023-09-09T12:46:42.561Z,14
2023-09-09T12:47:42.582Z,8
2023-09-09T12:48:42.563Z,8
2023-09-09T12:49:42.668Z,15
2023-09-09T12:50:44.378Z,11
2023-09-09T12:51:42.636Z,7
2023-09-09T12:52:42.577Z,9
2023-09-09T12:53:42.493Z,12
2023-09-09T12:54:42.502Z,13
2023-09-09T12:55:42.481Z,15
2023-09-09T12:56:42.471Z,13
2023-09-09T12:57:42.492Z,12
2023-09-09T12:58:42.526Z,11
2023-09-09T12:59:42.658Z,12
2023-09-09T13:00:42.498Z,14
2023-09-09T13:01:42.559Z,13
2023-09-09T13:02:42.650Z,13
2023-09-09T13:03:42.955Z,10
2023-09-09T13:04:42.487Z,12
2023-09-09T13:05:42.612Z,11
2023-09-09T13:06:42.541Z,9
2023-09-09T13:07:42.553Z,10
2023-09-09T13:08:42.502Z,10
2023-09-09T13:09:42.445Z,13
2023-09-09T13:10:42.513Z,11
2023-09-09T13:11:42.503Z,11
2023-09-09T13:12:42.466Z,13
2023-09-09T13:13:42.773Z,12
2023-09-09T13:14:42.481Z,11
2023-09-09T13:15:42.702Z,9
2023-09-09T13:16:42.583Z,8
2023-09-09T13:17:42.595Z,10
2023-09-09T13:18:42.490Z,16
2023-09-09T13:19:42.478Z,13
2023-09-09T13:20:42.492Z,13
2023-09-09T13:21:42.529Z,16
2023-09-09T13:22:42.469Z,12
2023-09-09T13:23:42.663Z,14
2023-09-09T13:24:42.497Z,12
2023-09-09T13:25:42.486Z,15
2023-09-09T13:26:42.475Z,17
2023-09-09T13:27:42.497Z,10
2023-09-09T13:28:42.468Z,13
2023-09-09T13:29:42.468Z,16
2023-09-09T13:30:42.502Z,16
2023-09-09T13:31:42.685Z,10
2023-09-09T13:32:42.593Z,13
2023-09-09T13:33:43.026Z,12
2023-09-09T13:34:42.487Z,11
2023-09-09T13:35:42.502Z,12
2023-09-09T13:36:42.472Z,18
2023-09-09T13:37:42.512Z,15
2023-09-09T13:38:42.486Z,14
2023-09-09T13:39:42.543Z,14
2023-09-09T13:40:42.548Z,10
2023-09-09T13:41:42.522Z,17
2023-09-09T13:42:42.544Z,10
2023-09-09T13:43:42.491Z,12
2023-09-09T13:44:48.932Z,10
2023-09-09T13:45:42.502Z,10
2023-09-09T13:46:42.556Z,16
2023-09-09T13:47:42.565Z,14
2023-09-09T13:48:42.564Z,15
2023-09-09T13:49:42.512Z,14
2023-09-09T13:50:42.499Z,10
2023-09-09T13:51:42.473Z,15
2023-09-09T13:52:42.475Z,12
2023-09-09T13:53:42.579Z,13
2023-09-09T13:54:42.628Z,10
2023-09-09T13:55:42.504Z,14
2023-09-09T13:56:45.102Z,15
2023-09-09T13:57:42.487Z,15
2023-09-09T13:58:42.502Z,11
2023-09-09T13:59:42.484Z,18
2023-09-09T14:00:42.519Z,18
2023-09-09T14:01:42.485Z,15
2023-09-09T14:02:42.596Z,14
2023-09-09T14:03:42.690Z,15
2023-09-09T14:04:42.589Z,9
2023-09-09T14:05:42.494Z,11
2023-09-09T14:06:42.540Z,15
2023-09-09T14:07:42.576Z,18
2023-09-09T14:08:42.551Z,15
2023-09-09T14:09:42.544Z,15
2023-09-09T14:10:42.505Z,12
2023-09-09T14:11:42.506Z,13
2023-09-09T14:12:42.790Z,12
2023-09-09T14:13:42.542Z,12
2023-09-09T14:14:42.594Z,14
2023-09-09T14:15:42.644Z,15
2023-09-09T14:16:42.547Z,10
2023-09-09T14:17:42.548Z,15
2023-09-09T14:18:43.049Z,11
2023-09-09T14:19:42.517Z,12
2023-09-09T14:20:42.676Z,12
2023-09-09T14:21:42.650Z,12
2023-09-09T14:22:42.540Z,10
2023-09-09T14:23:42.588Z,11
2023-09-09T14:24:42.570Z,15
2023-09-09T14:25:42.498Z,13
2023-09-09T14:26:42.605Z,15
2023-09-09T14:27:42.510Z,12
2023-09-09T14:28:42.580Z,15
2023-09-09T14:29:42.678Z,16
2023-09-09T14:30:42.630Z,19
2023-09-09T14:31:42.576Z,12
2023-09-09T14:32:42.698Z,13
2023-09-09T14:33:42.606Z,16
2023-09-09T14:34:42.531Z,17
2023-09-09T14:35:42.563Z,13
2023-09-09T14:36:42.491Z,12
2023-09-09T14:37:42.627Z,13
2023-09-09T14:38:42.532Z,15
2023-09-09T14:39:42.550Z,14
2023-09-09T14:40:42.577Z,11
2023-09-09T14:41:42.546Z,12
2023-09-09T14:42:42.585Z,12